Pagrindinis puslapis
METAR-TAF:

METAR-TAF

Oro uostai :

Namsos, Norvegija

platuma: 64-28N, ilguma: 011-35E, Aukštis: 0 m

Dabartinis oras

Ataskaita buvo paskelbta 6 valandos ir 30 minutes, ne 21:20 UTC
Vėjas 15 kt iš Rytų/Šiaurės Rytų
Temperatūra -8°C
Drėgmė 79%
Slėgis 994 hPa
Matomumas: 7000 m
Išsisklaidę debesys ne aukštis 600 ft
Su prošvaistėmis ne aukštis 1500 ft
sniegas

METAR: ENNM 302120Z 07015KT 7000 -SHSN SCT006 BKN015 M08/M11 Q0994

Laikas: 04:50 (03:50 UTC)


TAF: trūkstamas

Orai ataskaitas ir orų prognozės (METAR, TAF).

turimą stotys yra geltonos ir raudonos taškus žemėlapyje.

Perkelti pele per norėdami pamatyti stoties vardą.

Tada spustelėkite, norėdami matyti oro stebėjimo ir prognozės.

Norėdami pakeisti žemėlapį: spustelėkite ant žalios mygtukų su juodo kryžiaus žemyn,; žalią mygtuką su brūkšneliu, jei norite nutolinti; arba žalių rodyklių gretimoms žemėlapius.


METAR-TAF: